createdAt,value
2018-06-29T00:05:57.182Z,89.20
2018-06-29T00:10:51.843Z,90.20
2018-06-29T00:15:47.446Z,90.70
2018-06-29T00:20:42.870Z,91.40
2018-06-29T00:25:38.264Z,91.70
2018-06-29T00:30:32.986Z,92.10
2018-06-29T00:35:27.664Z,92.70
2018-06-29T00:40:22.593Z,93.20
2018-06-29T00:45:17.061Z,94.10
2018-06-29T00:50:11.736Z,94.10
2018-06-29T00:55:07.910Z,95.10
2018-06-29T01:00:08.654Z,95.40
2018-06-29T01:05:03.178Z,95.60
2018-06-29T01:09:57.765Z,95.90
2018-06-29T01:14:52.385Z,96.40
2018-06-29T01:19:47.278Z,96.70
2018-06-29T01:24:42.019Z,97.20
2018-06-29T01:29:36.808Z,97.90
2018-06-29T01:34:31.750Z,98.30
2018-06-29T01:39:26.286Z,99.00
2018-06-29T01:44:21.329Z,99.40
2018-06-29T01:49:16.206Z,99.90
2018-06-29T01:59:05.178Z,99.90
2018-06-29T02:04:00.029Z,99.90
2018-06-29T02:08:54.818Z,99.90
2018-06-29T02:13:50.010Z,99.90
2018-06-29T02:18:44.545Z,99.90
2018-06-29T02:33:29.026Z,99.90
2018-06-29T02:38:23.904Z,99.90
2018-06-29T02:53:08.394Z,99.90
2018-06-29T02:58:03.121Z,99.90
2018-06-29T03:02:57.640Z,99.90
2018-06-29T03:07:52.185Z,99.90
2018-06-29T03:27:30.784Z,99.90
2018-06-29T03:32:25.549Z,99.90
2018-06-29T03:37:20.280Z,99.90
2018-06-29T03:42:14.811Z,99.90
2018-06-29T03:47:10.204Z,99.90
2018-06-29T03:52:05.008Z,99.90
2018-06-29T03:56:59.713Z,99.90
2018-06-29T04:06:48.932Z,99.90
2018-06-29T04:21:33.242Z,99.90
2018-06-29T04:26:27.853Z,99.90
2018-06-29T04:31:22.928Z,99.90
2018-06-29T04:36:17.469Z,99.90
2018-06-29T04:41:12.044Z,99.90
2018-06-29T04:46:06.798Z,99.90
2018-06-29T04:51:01.496Z,99.90
2018-06-29T04:55:55.971Z,99.90
2018-06-29T05:00:50.969Z,99.90
2018-06-29T05:05:45.722Z,99.90
2018-06-29T05:10:40.640Z,99.90
2018-06-29T05:15:35.227Z,99.90
2018-06-29T05:20:29.882Z,97.10
2018-06-29T05:35:14.404Z,70.30
2018-06-29T05:40:09.630Z,60.30
2018-06-29T05:45:05.366Z,54.90
2018-06-29T05:50:00.153Z,49.60
2018-06-29T06:04:47.767Z,38.20
2018-06-29T06:09:42.626Z,37.50
2018-06-29T06:14:38.217Z,35.70
2018-06-29T06:19:50.541Z,33.80
2018-06-29T06:24:45.631Z,31.70
2018-06-29T06:29:40.582Z,29.60
2018-06-29T06:34:35.290Z,28.30
2018-06-29T06:39:30.085Z,27.80
2018-06-29T06:44:24.831Z,26.10
2018-06-29T06:49:20.182Z,25.30
2018-06-29T06:54:15.200Z,24.30
2018-06-29T06:59:10.703Z,23.00
2018-06-29T07:04:06.068Z,22.50
2018-06-29T07:13:55.393Z,22.30
2018-06-29T07:18:50.441Z,21.50
2018-06-29T07:23:45.243Z,21.20
2018-06-29T07:28:40.107Z,20.40
2018-06-29T07:33:35.048Z,20.20
2018-06-29T07:38:29.836Z,19.50
2018-06-29T07:43:24.676Z,18.80
2018-06-29T07:48:19.441Z,19.00
2018-06-29T07:53:14.548Z,18.30
2018-06-29T07:58:10.894Z,17.80
2018-06-29T08:03:07.018Z,17.00
2018-06-29T08:17:52.378Z,17.50
2018-06-29T08:27:43.930Z,16.10
2018-06-29T08:32:43.256Z,16.50
2018-06-29T08:37:38.972Z,16.40
2018-06-29T08:42:35.460Z,15.70
2018-06-29T08:52:26.620Z,15.60
2018-06-29T08:57:22.684Z,16.90
2018-06-29T09:02:18.769Z,17.10
2018-06-29T09:07:13.823Z,17.70
2018-06-29T09:17:04.724Z,15.60
2018-06-29T09:22:00.367Z,15.90
2018-06-29T09:26:55.629Z,15.00
2018-06-29T09:46:36.273Z,16.20
2018-06-29T09:51:31.033Z,16.80
2018-06-29T10:11:10.050Z,24.90
2018-06-29T10:16:04.967Z,26.90
2018-06-29T10:20:59.685Z,29.20
2018-06-29T10:25:54.402Z,31.10
2018-06-29T10:30:49.336Z,34.10
2018-06-29T10:35:44.359Z,34.30
2018-06-29T10:40:39.166Z,36.00
2018-06-29T10:50:28.915Z,36.80
2018-06-29T10:55:23.750Z,38.40
2018-06-29T11:00:18.966Z,37.40
2018-06-29T11:05:13.435Z,37.70
2018-06-29T11:10:08.822Z,36.10
2018-06-29T11:15:04.102Z,37.60
2018-06-29T11:19:59.016Z,35.90
2018-06-29T11:24:54.193Z,36.60
2018-06-29T11:29:49.037Z,36.90
2018-06-29T11:34:43.927Z,36.80
2018-06-29T11:39:39.016Z,36.00
2018-06-29T11:44:34.108Z,35.00
2018-06-29T11:49:29.022Z,35.60
2018-06-29T11:54:23.799Z,35.50
2018-06-29T11:59:18.746Z,34.70
2018-06-29T12:04:13.496Z,34.70
2018-06-29T12:09:10.790Z,34.00
2018-06-29T12:14:05.702Z,34.30
2018-06-29T12:19:00.578Z,34.20
2018-06-29T12:23:55.136Z,33.30
2018-06-29T12:28:49.772Z,33.10
2018-06-29T12:33:44.665Z,33.60
2018-06-29T12:38:39.612Z,33.80
2018-06-29T12:48:28.581Z,33.70
2018-06-29T12:53:23.740Z,34.40
2018-06-29T12:58:18.637Z,34.30
2018-06-29T13:03:13.418Z,34.10
2018-06-29T13:08:08.181Z,33.50
2018-06-29T13:13:03.347Z,33.30
2018-06-29T13:17:58.201Z,33.30
2018-06-29T13:22:53.295Z,32.60
2018-06-29T13:27:48.341Z,32.40
2018-06-29T13:32:43.656Z,33.10
2018-06-29T13:42:32.793Z,33.50
2018-06-29T13:47:27.563Z,33.20
2018-06-29T13:52:22.413Z,33.70
2018-06-29T13:57:17.281Z,33.90
2018-06-29T14:02:12.174Z,32.90
2018-06-29T14:07:06.909Z,34.20
2018-06-29T14:12:02.370Z,34.10
2018-06-29T14:16:57.177Z,34.10
2018-06-29T14:31:42.346Z,32.30
2018-06-29T14:36:37.531Z,32.70
2018-06-29T14:41:32.354Z,33.60
2018-06-29T14:46:27.139Z,33.60
2018-06-29T14:56:17.256Z,34.10
2018-06-29T15:01:12.014Z,34.10
2018-06-29T15:06:06.809Z,34.10
2018-06-29T15:11:01.636Z,33.60
2018-06-29T15:16:00.387Z,33.80
2018-06-29T15:20:55.684Z,32.90
2018-06-29T15:30:45.154Z,33.80
2018-06-29T15:35:39.923Z,33.40
2018-06-29T15:50:24.110Z,32.50
2018-06-29T15:55:19.352Z,32.80
2018-06-29T16:00:14.505Z,32.60
2018-06-29T16:05:09.998Z,32.40
2018-06-29T16:10:05.038Z,32.20
2018-06-29T16:15:00.144Z,32.40
2018-06-29T16:19:54.904Z,32.30
2018-06-29T16:24:50.135Z,32.00
2018-06-29T16:29:45.445Z,31.60
2018-06-29T16:34:40.549Z,32.10
2018-06-29T16:44:30.243Z,31.60
2018-06-29T16:49:25.193Z,31.80
2018-06-29T16:54:20.357Z,32.00
2018-06-29T16:59:15.564Z,32.40
2018-06-29T17:04:10.742Z,32.40
2018-06-29T17:09:08.590Z,33.00
2018-06-29T17:14:03.898Z,33.10
2018-06-29T17:18:58.847Z,33.80
2018-06-29T17:23:53.942Z,34.50
2018-06-29T17:28:48.797Z,35.30
2018-06-29T17:33:43.754Z,36.00
2018-06-29T17:38:38.743Z,36.80
2018-06-29T17:43:33.464Z,37.30
2018-06-29T17:48:28.279Z,38.00
2018-06-29T18:03:12.357Z,39.10
2018-06-29T18:13:02.028Z,39.90
2018-06-29T18:17:56.804Z,40.40
2018-06-29T18:22:51.831Z,40.30
2018-06-29T18:27:46.398Z,40.70
2018-06-29T18:32:40.930Z,41.60
2018-06-29T18:42:29.815Z,41.60
2018-06-29T18:47:24.434Z,41.90
2018-06-29T18:52:19.255Z,42.50
2018-06-29T18:57:13.826Z,43.00
2018-06-29T19:02:08.688Z,43.40
2018-06-29T19:11:57.459Z,44.00
2018-06-29T19:16:52.176Z,44.00
2018-06-29T19:21:46.910Z,43.80
2018-06-29T19:26:41.389Z,44.30
2018-06-29T19:31:35.849Z,44.00
2018-06-29T19:36:30.462Z,44.30
2018-06-29T19:41:25.148Z,45.40
2018-06-29T19:46:21.480Z,45.90
2018-06-29T19:51:16.300Z,46.40
2018-06-29T20:01:05.034Z,47.00
2018-06-29T20:05:59.604Z,47.00
2018-06-29T20:10:54.414Z,47.30
2018-06-29T20:15:48.948Z,47.20
2018-06-29T20:25:39.511Z,47.30
2018-06-29T20:30:35.492Z,47.80
2018-06-29T20:35:30.788Z,48.30
2018-06-29T20:40:25.672Z,48.30
2018-06-29T20:45:21.177Z,48.50
2018-06-29T20:50:16.242Z,49.00
2018-06-29T20:55:14.169Z,49.40
2018-06-29T21:00:09.740Z,50.50
2018-06-29T21:05:05.189Z,51.00
2018-06-29T21:10:00.211Z,52.30
2018-06-29T21:14:55.262Z,53.60
2018-06-29T21:19:50.050Z,53.50
2018-06-29T21:24:45.025Z,55.20
2018-06-29T21:29:39.532Z,57.70
2018-06-29T21:39:28.931Z,66.00
2018-06-29T21:44:25.060Z,67.70
2018-06-29T21:49:20.227Z,71.50
2018-06-29T21:54:14.785Z,73.20
2018-06-29T21:59:10.319Z,74.50
2018-06-29T22:04:05.716Z,76.30
2018-06-29T22:09:00.438Z,78.00
2018-06-29T22:13:55.540Z,80.70
2018-06-29T22:18:50.730Z,82.10
2018-06-29T22:23:45.963Z,83.70
2018-06-29T22:28:40.469Z,84.20
2018-06-29T22:33:35.521Z,85.60
2018-06-29T22:38:30.205Z,87.30
2018-06-29T22:43:24.701Z,88.80
2018-06-29T22:53:13.986Z,92.60
2018-06-29T22:58:08.806Z,93.50
2018-06-29T23:03:11.012Z,94.40
2018-06-29T23:13:00.820Z,96.30
2018-06-29T23:17:55.595Z,97.40
2018-06-29T23:22:50.413Z,97.90
2018-06-29T23:27:45.019Z,99.10
2018-06-29T23:32:39.770Z,99.90
2018-06-29T23:37:34.248Z,99.90
2018-06-29T23:42:28.848Z,99.90
2018-06-29T23:47:23.520Z,99.90
2018-06-29T23:52:18.262Z,99.90
2018-06-29T23:57:13.034Z,99.90
